Aérodrome :
LOGIN :

S'inscrire | Disclaimer

   EN    FR    IT 

 










Légende :    VFR   VFR Marginal   IFR   IFR Intensif   IFR Très Intensif
Visi : 
Plafond : 
>= 8 km
>= 3000ft
5 à 8 km
1000 à 3000 ft
1500m à 5 km
500 à 1000 ft
800 à 1500m
200 à 500 ft
< 800m
< 200 ft
Symboles :   Orages  Brouillard  Fortes neiges  Fortes précipitations  Vent > 20 kt
SIGMETs :   Divers  Orages  Givrage  Turbulence  Onde Orograph.  Cendres Volcan.







- Altitude de l'aérodrome : 505 ft
- Code IATA : SXB
- Voir les cartes d'approche


LFST - Strasbourg

DERNIER METAR :
  • 180300Z AUTO VRB01KT 8000 1200 R23/P2000 R05/1500D FEW002 05/04 Q1017 TEMPO 0600 FG VV///

METARs EXPIRÉS :
  • 180230Z AUTO 00000KT 5000 1200 R23/P2000 R05/0900D BR FEW001 06/05 Q1017 TEMPO 0600 FG VV///
  • 180200Z AUTO 17002KT 1400 0650 R23/P2000 R05/0700D BCFG VV/// 05/05 Q1017 TEMPO 0600 FG
  • 180130Z AUTO 28001KT 9999 3000 R05/1200U FEW003 07/06 Q1017 TEMPO 0600 FG VV///
  • 180100Z AUTO VRB02KT 7000 NSC 06/05 Q1018 TEMPO 0600 FG VV///
  • 180030Z AUTO VRB03KT 9999 4800 NSC 07/06 Q1018 TEMPO 0600 FG VV///

TAF TAF LFST
Valide du 18 à 00h jusqu'au 19 à 00h UTC


172300Z 1800/1824 VRB03KT CAVOK
TEMPO 1800/1807 3000 MIFG
PROB40
TEMPO 1802/1806 0600 FG VV///
BECMG 1808/1810 17005KT
Pas de NOTAMs connus pour ce terrain.



MET'MAP, la Météo Aéronautique d'un coup d'oeil ! - Copyright ORBIFLY Décembre 2007 - Disclaimer

ORBIFLY MET'MAP TEAM :

Programmation & Développement : Alexandra Zaïnal
Conception & Développement : Baudouin d'Aumeries
Co-Programmation & Développement : Marc-Olivier Méhu
Soutien technique & logistique : Manuel Goepfert

Contact : metmap@orbifly.com




SOURCES & CREDITS :

   NOAA